Flight Track Log - Related Links

Times and Time Zones

All times are in EDT time to prevent confusion due to time zone crossing. See the FSR411 flight status page for this flight to view local times or setup timezone preferences in your user account.


Time Position Orientation Groundspeed Altitude Reporting Facility
EDT Latitude Longitude Course Direction KTS MPH feet Rate Location/Type
Sun 09:26:25 AM 40.0572 -88.3400 353° North 269 310 4,400  Level Chicago Center
Sun 09:27:27 AM 40.1297 -88.3417 359° North 272 313 8,000 2,468 Climbing Chicago Center
Sun 09:28:29 AM 40.2117 -88.3556 353° North 289 333 9,500 1,268 Climbing Chicago Center
Sun 09:29:30 AM 40.3206 -88.3697 354° North 323 372 10,600 780 Climbing Chicago Center
Sun 09:30:32 AM 40.4142 -88.3831 354° North 333 383 11,100 244 Climbing Chicago Center
Sun 09:31:00 AM 40.5111 -88.3576 353° North  Level FlightAware Approximate
Sun 09:31:33 AM 40.5022 -88.3933 355° North 323 372 11,100  Level Chicago Center
Sun 09:32:35 AM 40.5858 -88.4044 354° North 307 353 11,100  Level Chicago Center
Sun 09:33:36 AM 40.6725 -88.4164 354° North 308 354 11,100  Level Chicago Center
Sun 09:34:38 AM 40.7592 -88.4269 355° North 310 357 11,100 -195 Level Chicago Center
Sun 09:35:39 AM 40.8456 -88.4383 354° North 311 358 10,700 -780 Descending Chicago Center
Sun 09:36:41 AM 40.9303 -88.4492 354° North 310 357 9,500 -1,268 Descending Chicago Center
Sun 09:37:42 AM 41.0189 -88.4631 353° North 279 321 8,100 -732 Descending Chicago Center
Sun 09:38:44 AM 41.0889 -88.4897 344° North 264 304 8,000 -49 Descending Chicago Center
Sun 09:39:45 AM 41.1683 -88.5206 344° North 273 314 8,000  Level Chicago Center
Sun 09:40:47 AM 41.2417 -88.5481 344° North 274 315 8,000 -49 Level Chicago Center
Sun 09:41:48 AM 41.3142 -88.5761 344° North 274 315 7,900 -537 Descending Chicago Center
Sun 09:42:50 AM 41.3853 -88.5817 357° North 273 314 6,900 -927 Descending Chicago Center
Sun 09:43:51 AM 41.4025 -88.4739 78° East 287 330 6,000 -443 Descending Chicago Center
Sun 09:44:52 AM 41.4436 -88.3886 57° Northeast 273 314 6,000  Level Chicago Center
Sun 09:45:54 AM 41.4939 -88.3108 49° Northeast 275 316 6,000 -293 Level Chicago Center
Sun 09:46:55 AM 41.5406 -88.2150 57° Northeast 284 327 5,400 -927 Descending Chicago Center
Sun 09:47:57 AM 41.5822 -88.1261 58° Northeast 286 329 4,100 -683 Descending Chicago Center
Sun 09:48:58 AM 41.6214 -88.0406 58° Northeast 273 314 4,000 -49 Descending Chicago Center
Sun 09:50:00 AM 41.6603 -87.9553 59° Northeast 270 311 4,000  Level Chicago Center
Sun 09:51:01 AM 41.6972 -87.8753 58° Northeast 239 275 4,000  Level Chicago Center
Sun 09:52:02 AM 41.7317 -87.7986 59° Northeast 239 275 4,000  Level Chicago Center
Sun 09:53:04 AM 41.7572 -87.7186 67° East 237 273 4,000 -195 Level Chicago Center
Sun 09:54:05 AM 41.7594 -87.6297 88° East 237 273 3,600 -488 Descending Chicago Center
Sun 09:55:07 AM 41.7622 -87.5331 88° East 239 275 3,000 -293 Descending Chicago Center
Sun 09:56:08 AM 41.8036 -87.5017 29° Northeast 195 224 3,000  Level Chicago Center
Sun 09:57:10 AM 41.8486 -87.5239 340° North 188 216 3,000 -244 Level Chicago Center
Sun 09:58:11 AM 41.8486 -87.5819 270° West 160 184 2,500 -295 Descending Chicago Center
Sun 09:59:12 AM 41.8453 -87.6375 265° West 139 160 2,400 -293 Descending Chicago Center
Sun 10:00:14 AM 41.8300 -87.6811 245° Southwest 131 151 1,900 -585 Descending Chicago Center
Sun 10:01:15 AM 41.8122 -87.7228 240° Southwest 129 148 1,200 -585 Descending Chicago Center
Sun 10:02:17 AM 41.7872 -87.7536 223° Southwest 120 138 700 -484 Descending Chicago Center

Login

Don't have an account? Register now (free) for customized features, flight alerts, and more!